Terminal Aerodrome Forecast
Issued by NWS Charleston, WV

Current Version | Previous Version | Graphics & Text | Print | Product List | Glossary On
Versions: 1 2 3 4 5 6 7 8 9 10 11 12 13 14 15 16 17 18 19 20 21 22 23 24
000
FTUS41 KRLX 241700 RRA
TAFBKW
TAF
KBKW 241741Z 2418/2518 23020G40KT P6SM SCT050
     FM242000 24018G30KT P6SM SCT050
     FM242300 26012G25KT P6SM BKN050
     FM250100 28010KT P6SM BKN040
     FM251000 30010KT P6SM SCT030=

USA.gov is the U.S. government's official web portal to all federal, state and local government web resources and services.